sensor_id;sensor_type;location;lat;lon;timestamp;P1;durP1;ratioP1;P2;durP2;ratioP2
46339;SDS011;47273;49.274;8.708;2022-11-22T04:31:37;15.75;;;9.43;;
46339;SDS011;47273;49.274;8.708;2022-11-22T04:34:21;16.40;;;9.23;;
46339;SDS011;47273;49.274;8.708;2022-11-22T04:36:47;15.38;;;7.53;;
46339;SDS011;47273;49.274;8.708;2022-11-22T04:39:13;12.88;;;6.60;;
46339;SDS011;47273;49.274;8.708;2022-11-22T04:41:38;13.05;;;7.35;;
46339;SDS011;47273;49.274;8.708;2022-11-22T04:44:04;12.00;;;7.68;;
46339;SDS011;47273;49.274;8.708;2022-11-22T04:46:48;11.18;;;7.90;;
46339;SDS011;47273;49.274;8.708;2022-11-22T04:49:13;9.30;;;7.72;;
46339;SDS011;47273;49.274;8.708;2022-11-22T04:51:39;12.27;;;7.43;;
46339;SDS011;47273;49.274;8.708;2022-11-22T04:54:23;12.50;;;8.30;;
46339;SDS011;47273;49.274;8.708;2022-11-22T04:56:49;10.70;;;7.95;;
46339;SDS011;47273;49.274;8.708;2022-11-22T04:59:14;20.95;;;8.48;;
46339;SDS011;47273;49.274;8.708;2022-11-22T05:01:40;16.25;;;8.07;;
46339;SDS011;47273;49.274;8.708;2022-11-22T05:04:06;10.23;;;7.90;;
46339;SDS011;47273;49.274;8.708;2022-11-22T05:06:32;12.30;;;8.27;;
46339;SDS011;47273;49.274;8.708;2022-11-22T05:08:57;10.27;;;8.15;;
46339;SDS011;47273;49.274;8.708;2022-11-22T05:11:23;11.80;;;7.97;;
46339;SDS011;47273;49.274;8.708;2022-11-22T05:13:48;8.98;;;8.07;;
46339;SDS011;47273;49.274;8.708;2022-11-22T05:16:14;15.93;;;8.55;;
46339;SDS011;47273;49.274;8.708;2022-11-22T05:18:40;14.77;;;8.95;;
46339;SDS011;47273;49.274;8.708;2022-11-22T05:21:06;17.48;;;9.60;;
46339;SDS011;47273;49.274;8.708;2022-11-22T05:23:36;16.88;;;10.35;;
46339;SDS011;47273;49.274;8.708;2022-11-22T05:26:20;19.08;;;9.68;;
46339;SDS011;47273;49.274;8.708;2022-11-22T05:28:48;18.30;;;9.48;;
46339;SDS011;47273;49.274;8.708;2022-11-22T05:31:15;13.55;;;9.65;;
46339;SDS011;47273;49.274;8.708;2022-11-22T05:33:47;14.45;;;9.57;;
46339;SDS011;47273;49.274;8.708;2022-11-22T05:36:13;15.93;;;10.50;;
46339;SDS011;47273;49.274;8.708;2022-11-22T05:38:39;17.23;;;9.65;;
46339;SDS011;47273;49.274;8.708;2022-11-22T05:41:06;16.80;;;10.35;;
46339;SDS011;47273;49.274;8.708;2022-11-22T05:43:33;13.07;;;10.02;;
46339;SDS011;47273;49.274;8.708;2022-11-22T05:46:22;15.15;;;9.30;;
46339;SDS011;47273;49.274;8.708;2022-11-22T05:48:47;14.10;;;9.18;;
46339;SDS011;47273;49.274;8.708;2022-11-22T05:51:14;12.60;;;9.30;;
46339;SDS011;47273;49.274;8.708;2022-11-22T05:53:42;14.80;;;10.07;;
46339;SDS011;47273;49.274;8.708;2022-11-22T05:56:10;17.10;;;9.05;;
46339;SDS011;47273;49.274;8.708;2022-11-22T05:58:47;16.05;;;9.00;;
46339;SDS011;47273;49.274;8.708;2022-11-22T06:01:14;24.50;;;9.18;;
46339;SDS011;47273;49.274;8.708;2022-11-22T06:03:41;13.75;;;8.43;;
46339;SDS011;47273;49.274;8.708;2022-11-22T06:06:07;13.32;;;8.45;;
46339;SDS011;47273;49.274;8.708;2022-11-22T06:08:34;12.68;;;8.30;;
46339;SDS011;47273;49.274;8.708;2022-11-22T06:11:04;14.23;;;9.15;;
46339;SDS011;47273;49.274;8.708;2022-11-22T06:13:35;20.35;;;9.05;;
46339;SDS011;47273;49.274;8.708;2022-11-22T06:16:05;14.38;;;9.10;;
46339;SDS011;47273;49.274;8.708;2022-11-22T06:18:31;19.15;;;9.70;;
46339;SDS011;47273;49.274;8.708;2022-11-22T06:20:58;9.48;;;8.57;;
46339;SDS011;47273;49.274;8.708;2022-11-22T06:23:24;14.00;;;9.25;;
46339;SDS011;47273;49.274;8.708;2022-11-22T06:25:57;14.80;;;9.32;;
46339;SDS011;47273;49.274;8.708;2022-11-22T06:28:27;19.48;;;9.00;;
46339;SDS011;47273;49.274;8.708;2022-11-22T06:30:59;14.35;;;8.95;;
46339;SDS011;47273;49.274;8.708;2022-11-22T06:33:38;14.07;;;8.52;;
46339;SDS011;47273;49.274;8.708;2022-11-22T06:36:07;14.55;;;7.90;;
46339;SDS011;47273;49.274;8.708;2022-11-22T06:38:33;12.50;;;7.47;;
46339;SDS011;47273;49.274;8.708;2022-11-22T06:41:03;16.85;;;8.15;;
46339;SDS011;47273;49.274;8.708;2022-11-22T06:43:31;10.75;;;7.47;;
46339;SDS011;47273;49.274;8.708;2022-11-22T06:45:58;15.40;;;7.80;;
46339;SDS011;47273;49.274;8.708;2022-11-22T06:48:25;13.77;;;7.78;;
46339;SDS011;47273;49.274;8.708;2022-11-22T06:50:59;10.38;;;8.20;;
46339;SDS011;47273;49.274;8.708;2022-11-22T06:53:30;11.60;;;8.10;;
46339;SDS011;47273;49.274;8.708;2022-11-22T06:56:00;14.82;;;7.32;;
46339;SDS011;47273;49.274;8.708;2022-11-22T06:58:46;17.92;;;7.07;;
46339;SDS011;47273;49.274;8.708;2022-11-22T07:01:14;23.35;;;8.32;;
46339;SDS011;47273;49.274;8.708;2022-11-22T07:03:40;11.85;;;7.55;;
46339;SDS011;47273;49.274;8.708;2022-11-22T07:06:07;18.95;;;9.82;;
46339;SDS011;47273;49.274;8.708;2022-11-22T07:08:34;12.63;;;9.15;;
46339;SDS011;47273;49.274;8.708;2022-11-22T07:11:04;15.60;;;6.65;;
46339;SDS011;47273;49.274;8.708;2022-11-22T07:13:31;10.45;;;6.65;;
46339;SDS011;47273;49.274;8.708;2022-11-22T07:15:58;12.15;;;7.75;;
46339;SDS011;47273;49.274;8.708;2022-11-22T07:18:25;11.50;;;8.23;;
46339;SDS011;47273;49.274;8.708;2022-11-22T07:20:51;11.70;;;7.38;;
46339;SDS011;47273;49.274;8.708;2022-11-22T07:23:18;13.93;;;7.80;;
46339;SDS011;47273;49.274;8.708;2022-11-22T07:25:44;14.88;;;8.00;;
46339;SDS011;47273;49.274;8.708;2022-11-22T07:28:11;17.05;;;7.88;;
46339;SDS011;47273;49.274;8.708;2022-11-22T07:30:37;14.77;;;8.35;;
46339;SDS011;47273;49.274;8.708;2022-11-22T07:33:03;10.23;;;7.68;;
46339;SDS011;47273;49.274;8.708;2022-11-22T07:35:29;18.73;;;8.27;;
46339;SDS011;47273;49.274;8.708;2022-11-22T07:37:54;14.23;;;6.47;;
46339;SDS011;47273;49.274;8.708;2022-11-22T07:40:20;9.23;;;6.30;;
46339;SDS011;47273;49.274;8.708;2022-11-22T07:42:46;9.18;;;6.50;;
46339;SDS011;47273;49.274;8.708;2022-11-22T07:45:11;13.88;;;7.47;;
46339;SDS011;47273;49.274;8.708;2022-11-22T07:47:37;14.27;;;6.97;;
46339;SDS011;47273;49.274;8.708;2022-11-22T07:50:03;12.85;;;7.45;;
46339;SDS011;47273;49.274;8.708;2022-11-22T07:52:29;12.60;;;6.25;;
46339;SDS011;47273;49.274;8.708;2022-11-22T07:54:55;16.80;;;7.00;;
46339;SDS011;47273;49.274;8.708;2022-11-22T07:57:20;20.13;;;7.20;;
46339;SDS011;47273;49.274;8.708;2022-11-22T07:59:46;13.32;;;7.00;;
46339;SDS011;47273;49.274;8.708;2022-11-22T08:02:12;14.07;;;6.80;;
46339;SDS011;47273;49.274;8.708;2022-11-22T08:04:38;14.65;;;7.25;;
46339;SDS011;47273;49.274;8.708;2022-11-22T08:07:03;15.93;;;7.00;;
46339;SDS011;47273;49.274;8.708;2022-11-22T08:09:29;23.65;;;7.78;;
46339;SDS011;47273;49.274;8.708;2022-11-22T08:11:55;16.48;;;7.63;;
46339;SDS011;47273;49.274;8.708;2022-11-22T08:14:21;18.70;;;7.45;;
46339;SDS011;47273;49.274;8.708;2022-11-22T08:16:47;15.50;;;7.18;;
46339;SDS011;47273;49.274;8.708;2022-11-22T08:19:12;22.48;;;7.57;;
46339;SDS011;47273;49.274;8.708;2022-11-22T08:21:41;12.77;;;7.43;;
46339;SDS011;47273;49.274;8.708;2022-11-22T08:24:08;14.25;;;6.97;;
46339;SDS011;47273;49.274;8.708;2022-11-22T08:26:33;20.33;;;7.47;;
46339;SDS011;47273;49.274;8.708;2022-11-22T08:28:59;11.38;;;7.07;;
46339;SDS011;47273;49.274;8.708;2022-11-22T08:31:27;16.67;;;6.97;;
46339;SDS011;47273;49.274;8.708;2022-11-22T08:33:53;18.42;;;7.20;;
46339;SDS011;47273;49.274;8.708;2022-11-22T08:36:19;27.83;;;12.02;;
46339;SDS011;47273;49.274;8.708;2022-11-22T08:38:44;28.85;;;11.73;;
46339;SDS011;47273;49.274;8.708;2022-11-22T08:41:10;29.60;;;11.27;;
46339;SDS011;47273;49.274;8.708;2022-11-22T08:43:36;15.98;;;8.38;;
46339;SDS011;47273;49.274;8.708;2022-11-22T08:46:02;20.05;;;8.70;;
46339;SDS011;47273;49.274;8.708;2022-11-22T08:48:28;13.70;;;8.77;;
46339;SDS011;47273;49.274;8.708;2022-11-22T08:50:56;17.73;;;8.73;;
46339;SDS011;47273;49.274;8.708;2022-11-22T08:53:23;13.05;;;8.77;;
46339;SDS011;47273;49.274;8.708;2022-11-22T08:55:49;13.00;;;8.18;;
46339;SDS011;47273;49.274;8.708;2022-11-22T08:58:15;13.55;;;7.05;;
46339;SDS011;47273;49.274;8.708;2022-11-22T09:00:41;10.20;;;7.22;;
46339;SDS011;47273;49.274;8.708;2022-11-22T09:03:07;9.55;;;6.70;;
46339;SDS011;47273;49.274;8.708;2022-11-22T09:05:33;18.55;;;7.80;;
46339;SDS011;47273;49.274;8.708;2022-11-22T09:07:59;13.45;;;6.97;;
46339;SDS011;47273;49.274;8.708;2022-11-22T09:10:25;11.23;;;7.13;;
46339;SDS011;47273;49.274;8.708;2022-11-22T09:12:51;14.70;;;6.53;;
46339;SDS011;47273;49.274;8.708;2022-11-22T09:15:17;15.15;;;7.07;;
46339;SDS011;47273;49.274;8.708;2022-11-22T09:17:43;8.05;;;6.65;;
46339;SDS011;47273;49.274;8.708;2022-11-22T09:20:09;15.43;;;7.43;;
46339;SDS011;47273;49.274;8.708;2022-11-22T09:22:35;14.57;;;7.28;;
46339;SDS011;47273;49.274;8.708;2022-11-22T09:25:02;11.52;;;7.05;;
46339;SDS011;47273;49.274;8.708;2022-11-22T09:27:30;16.20;;;8.13;;
46339;SDS011;47273;49.274;8.708;2022-11-22T09:29:56;11.38;;;7.40;;
46339;SDS011;47273;49.274;8.708;2022-11-22T09:32:22;13.38;;;7.40;;
46339;SDS011;47273;49.274;8.708;2022-11-22T09:34:48;17.17;;;7.15;;
46339;SDS011;47273;49.274;8.708;2022-11-22T09:37:14;16.80;;;8.10;;
46339;SDS011;47273;49.274;8.708;2022-11-22T09:39:43;11.00;;;7.93;;
46339;SDS011;47273;49.274;8.708;2022-11-22T09:53:32;8.13;;;6.47;;
46339;SDS011;47273;49.274;8.708;2022-11-22T09:56:15;11.13;;;7.03;;
46339;SDS011;47273;49.274;8.708;2022-11-22T09:58:57;12.88;;;7.18;;
46339;SDS011;47273;49.274;8.708;2022-11-22T10:01:45;13.23;;;7.43;;
46339;SDS011;47273;49.274;8.708;2022-11-22T10:04:31;11.80;;;7.07;;
46339;SDS011;47273;49.274;8.708;2022-11-22T10:06:58;14.77;;;7.57;;
46339;SDS011;47273;49.274;8.708;2022-11-22T10:12:47;14.00;;;8.20;;
46339;SDS011;47273;49.274;8.708;2022-11-22T10:21:02;15.38;;;8.35;;
46339;SDS011;47273;49.274;8.708;2022-11-22T10:23:27;14.30;;;7.20;;
46339;SDS011;47273;49.274;8.708;2022-11-22T10:25:59;16.88;;;7.60;;
46339;SDS011;47273;49.274;8.708;2022-11-22T10:31:05;10.85;;;7.07;;
46339;SDS011;47273;49.274;8.708;2022-11-22T10:36:37;11.00;;;7.13;;
46339;SDS011;47273;49.274;8.708;2022-11-22T10:45:03;9.02;;;6.85;;
46339;SDS011;47273;49.274;8.708;2022-11-22T10:47:44;9.95;;;7.45;;
46339;SDS011;47273;49.274;8.708;2022-11-22T10:50:51;10.18;;;6.65;;
46339;SDS011;47273;49.274;8.708;2022-11-22T10:56:34;8.38;;;6.95;;
46339;SDS011;47273;49.274;8.708;2022-11-22T11:05:03;14.30;;;7.22;;
46339;SDS011;47273;49.274;8.708;2022-11-22T11:07:32;7.60;;;6.80;;
46339;SDS011;47273;49.274;8.708;2022-11-22T11:10:00;7.10;;;6.40;;
46339;SDS011;47273;49.274;8.708;2022-11-22T11:15:20;7.55;;;6.50;;
46339;SDS011;47273;49.274;8.708;2022-11-22T11:17:59;13.77;;;7.13;;
46339;SDS011;47273;49.274;8.708;2022-11-22T11:20:28;10.65;;;7.25;;
46339;SDS011;47273;49.274;8.708;2022-11-22T11:23:00;12.85;;;7.50;;
46339;SDS011;47273;49.274;8.708;2022-11-22T11:25:27;8.95;;;6.53;;
46339;SDS011;47273;49.274;8.708;2022-11-22T11:28:16;9.75;;;6.82;;
46339;SDS011;47273;49.274;8.708;2022-11-22T11:30:49;7.28;;;6.57;;
46339;SDS011;47273;49.274;8.708;2022-11-22T11:33:19;14.73;;;7.55;;
46339;SDS011;47273;49.274;8.708;2022-11-22T11:35:49;10.18;;;8.70;;
46339;SDS011;47273;49.274;8.708;2022-11-22T11:38:25;12.35;;;9.30;;
46339;SDS011;47273;49.274;8.708;2022-11-22T11:40:54;8.82;;;7.95;;
46339;SDS011;47273;49.274;8.708;2022-11-22T11:43:21;11.32;;;6.90;;
46339;SDS011;47273;49.274;8.708;2022-11-22T11:45:47;10.98;;;7.00;;
46339;SDS011;47273;49.274;8.708;2022-11-22T11:48:33;11.85;;;7.93;;
46339;SDS011;47273;49.274;8.708;2022-11-22T11:53:39;12.40;;;7.05;;
46339;SDS011;47273;49.274;8.708;2022-11-22T11:56:38;9.27;;;7.43;;
46339;SDS011;47273;49.274;8.708;2022-11-22T11:59:20;9.23;;;7.60;;
46339;SDS011;47273;49.274;8.708;2022-11-22T12:01:58;9.05;;;6.22;;
46339;SDS011;47273;49.274;8.708;2022-11-22T12:07:27;14.73;;;6.82;;
46339;SDS011;47273;49.274;8.708;2022-11-22T12:10:22;10.68;;;7.70;;
46339;SDS011;47273;49.274;8.708;2022-11-22T12:21:14;12.60;;;7.20;;
46339;SDS011;47273;49.274;8.708;2022-11-22T12:26:40;8.32;;;7.40;;
46339;SDS011;47273;49.274;8.708;2022-11-22T12:29:08;8.68;;;6.88;;
46339;SDS011;47273;49.274;8.708;2022-11-22T12:34:07;9.73;;;6.95;;
46339;SDS011;47273;49.274;8.708;2022-11-22T12:36:45;9.07;;;7.47;;
46339;SDS011;47273;49.274;8.708;2022-11-22T12:39:20;9.10;;;7.47;;
46339;SDS011;47273;49.274;8.708;2022-11-22T12:41:51;12.65;;;7.10;;
46339;SDS011;47273;49.274;8.708;2022-11-22T12:44:32;9.25;;;7.20;;
46339;SDS011;47273;49.274;8.708;2022-11-22T12:47:06;12.63;;;8.18;;
46339;SDS011;47273;49.274;8.708;2022-11-22T12:52:42;11.98;;;8.25;;
46339;SDS011;47273;49.274;8.708;2022-11-22T12:57:39;7.88;;;7.18;;
46339;SDS011;47273;49.274;8.708;2022-11-22T13:00:16;11.40;;;7.32;;
46339;SDS011;47273;49.274;8.708;2022-11-22T13:05:35;8.82;;;6.60;;
46339;SDS011;47273;49.274;8.708;2022-11-22T13:08:10;7.80;;;6.78;;
46339;SDS011;47273;49.274;8.708;2022-11-22T13:10:48;9.60;;;6.70;;
46339;SDS011;47273;49.274;8.708;2022-11-22T13:13:27;9.38;;;7.05;;
46339;SDS011;47273;49.274;8.708;2022-11-22T13:16:07;11.25;;;7.13;;
46339;SDS011;47273;49.274;8.708;2022-11-22T13:18:36;11.63;;;7.00;;
46339;SDS011;47273;49.274;8.708;2022-11-22T13:21:07;8.15;;;7.28;;
46339;SDS011;47273;49.274;8.708;2022-11-22T13:26:33;8.35;;;7.13;;
46339;SDS011;47273;49.274;8.708;2022-11-22T13:29:19;11.32;;;7.30;;
46339;SDS011;47273;49.274;8.708;2022-11-22T13:34:36;9.75;;;7.90;;
46339;SDS011;47273;49.274;8.708;2022-11-22T13:37:13;13.43;;;8.98;;
46339;SDS011;47273;49.274;8.708;2022-11-22T13:39:44;13.75;;;7.50;;
46339;SDS011;47273;49.274;8.708;2022-11-22T13:42:21;11.70;;;8.60;;
46339;SDS011;47273;49.274;8.708;2022-11-22T13:44:52;10.82;;;8.38;;
46339;SDS011;47273;49.274;8.708;2022-11-22T13:47:38;10.45;;;7.47;;
46339;SDS011;47273;49.274;8.708;2022-11-22T13:53:21;7.38;;;6.63;;
46339;SDS011;47273;49.274;8.708;2022-11-22T13:55:52;9.27;;;6.97;;
46339;SDS011;47273;49.274;8.708;2022-11-22T14:00:48;11.43;;;7.10;;
46339;SDS011;47273;49.274;8.708;2022-11-22T14:05:49;8.15;;;6.90;;
46339;SDS011;47273;49.274;8.708;2022-11-22T14:08:27;9.60;;;6.82;;
46339;SDS011;47273;49.274;8.708;2022-11-22T14:13:45;10.93;;;7.68;;
46339;SDS011;47273;49.274;8.708;2022-11-22T14:16:46;12.00;;;7.47;;
46339;SDS011;47273;49.274;8.708;2022-11-22T14:28:08;11.55;;;8.10;;
46339;SDS011;47273;49.274;8.708;2022-11-22T14:30:36;8.18;;;7.38;;
46339;SDS011;47273;49.274;8.708;2022-11-22T14:33:24;10.13;;;6.47;;
46339;SDS011;47273;49.274;8.708;2022-11-22T14:41:50;7.25;;;6.55;;
46339;SDS011;47273;49.274;8.708;2022-11-22T14:44:13;7.45;;;6.78;;
46339;SDS011;47273;49.274;8.708;2022-11-22T14:46:45;8.10;;;6.00;;
46339;SDS011;47273;49.274;8.708;2022-11-22T14:51:58;7.55;;;5.95;;
46339;SDS011;47273;49.274;8.708;2022-11-22T14:54:26;5.93;;;5.43;;
46339;SDS011;47273;49.274;8.708;2022-11-22T14:56:58;8.07;;;5.90;;
46339;SDS011;47273;49.274;8.708;2022-11-22T15:10:56;7.45;;;6.10;;
46339;SDS011;47273;49.274;8.708;2022-11-22T15:16:33;8.90;;;5.72;;
46339;SDS011;47273;49.274;8.708;2022-11-22T15:18:59;6.05;;;5.55;;
46339;SDS011;47273;49.274;8.708;2022-11-22T15:21:33;6.60;;;5.70;;
46339;SDS011;47273;49.274;8.708;2022-11-22T15:24:00;9.82;;;6.05;;
46339;SDS011;47273;49.274;8.708;2022-11-22T15:26:26;6.60;;;6.00;;
46339;SDS011;47273;49.274;8.708;2022-11-22T15:28:55;6.90;;;6.03;;
46339;SDS011;47273;49.274;8.708;2022-11-22T15:31:33;7.20;;;6.60;;
46339;SDS011;47273;49.274;8.708;2022-11-22T15:34:00;7.50;;;6.78;;
46339;SDS011;47273;49.274;8.708;2022-11-22T15:39:53;7.90;;;6.10;;
46339;SDS011;47273;49.274;8.708;2022-11-22T15:42:19;7.05;;;6.45;;
46339;SDS011;47273;49.274;8.708;2022-11-22T15:44:45;7.85;;;6.07;;
46339;SDS011;47273;49.274;8.708;2022-11-22T15:47:14;7.50;;;5.82;;
46339;SDS011;47273;49.274;8.708;2022-11-22T15:49:42;12.88;;;6.60;;
46339;SDS011;47273;49.274;8.708;2022-11-22T15:52:21;7.03;;;6.38;;
46339;SDS011;47273;49.274;8.708;2022-11-22T15:54:52;8.32;;;6.95;;
46339;SDS011;47273;49.274;8.708;2022-11-22T15:57:30;6.80;;;6.20;;
46339;SDS011;47273;49.274;8.708;2022-11-22T15:59:59;7.28;;;6.60;;
46339;SDS011;47273;49.274;8.708;2022-11-22T16:02:26;7.70;;;6.57;;
46339;SDS011;47273;49.274;8.708;2022-11-22T16:04:57;8.10;;;7.40;;
46339;SDS011;47273;49.274;8.708;2022-11-22T16:07:35;13.50;;;7.50;;
46339;SDS011;47273;49.274;8.708;2022-11-22T16:10:15;9.43;;;8.43;;
46339;SDS011;47273;49.274;8.708;2022-11-22T16:12:50;9.27;;;8.32;;
46339;SDS011;47273;49.274;8.708;2022-11-22T16:20:56;7.38;;;6.68;;
46339;SDS011;47273;49.274;8.708;2022-11-22T16:23:27;6.95;;;6.35;;
46339;SDS011;47273;49.274;8.708;2022-11-22T16:25:58;8.55;;;6.32;;
46339;SDS011;47273;49.274;8.708;2022-11-22T16:28:38;7.13;;;6.43;;
46339;SDS011;47273;49.274;8.708;2022-11-22T16:31:06;8.20;;;6.95;;
46339;SDS011;47273;49.274;8.708;2022-11-22T16:33:44;7.18;;;6.47;;
46339;SDS011;47273;49.274;8.708;2022-11-22T16:36:11;13.65;;;6.97;;
46339;SDS011;47273;49.274;8.708;2022-11-22T16:38:38;7.20;;;6.00;;
46339;SDS011;47273;49.274;8.708;2022-11-22T16:41:04;7.93;;;6.20;;
46339;SDS011;47273;49.274;8.708;2022-11-22T16:43:41;8.45;;;7.10;;
46339;SDS011;47273;49.274;8.708;2022-11-22T16:46:08;7.00;;;6.40;;
46339;SDS011;47273;49.274;8.708;2022-11-22T16:48:36;6.90;;;6.20;;
46339;SDS011;47273;49.274;8.708;2022-11-22T16:51:03;6.60;;;5.95;;
46339;SDS011;47273;49.274;8.708;2022-11-22T16:53:44;9.93;;;7.20;;
46339;SDS011;47273;49.274;8.708;2022-11-22T16:56:15;7.55;;;6.82;;
46339;SDS011;47273;49.274;8.708;2022-11-22T16:58:43;7.90;;;6.88;;
46339;SDS011;47273;49.274;8.708;2022-11-22T17:01:10;9.27;;;8.07;;
46339;SDS011;47273;49.274;8.708;2022-11-22T17:03:39;9.02;;;7.80;;
46339;SDS011;47273;49.274;8.708;2022-11-22T17:06:07;8.35;;;7.57;;
46339;SDS011;47273;49.274;8.708;2022-11-22T17:08:40;8.20;;;6.55;;
46339;SDS011;47273;49.274;8.708;2022-11-22T17:11:07;8.13;;;7.32;;
46339;SDS011;47273;49.274;8.708;2022-11-22T17:13:34;9.13;;;7.03;;
46339;SDS011;47273;49.274;8.708;2022-11-22T17:16:00;7.85;;;6.93;;
46339;SDS011;47273;49.274;8.708;2022-11-22T17:18:26;7.65;;;6.50;;
46339;SDS011;47273;49.274;8.708;2022-11-22T17:20:52;7.13;;;6.38;;
46339;SDS011;47273;49.274;8.708;2022-11-22T17:23:30;9.93;;;6.28;;
46339;SDS011;47273;49.274;8.708;2022-11-22T17:26:01;8.25;;;7.45;;
46339;SDS011;47273;49.274;8.708;2022-11-22T17:28:27;8.30;;;7.60;;
46339;SDS011;47273;49.274;8.708;2022-11-22T17:30:53;8.02;;;7.32;;
46339;SDS011;47273;49.274;8.708;2022-11-22T17:33:22;12.85;;;8.30;;
46339;SDS011;47273;49.274;8.708;2022-11-22T17:35:49;8.38;;;7.65;;
46339;SDS011;47273;49.274;8.708;2022-11-22T17:38:16;8.23;;;7.43;;
46339;SDS011;47273;49.274;8.708;2022-11-22T17:40:42;8.98;;;8.18;;
46339;SDS011;47273;49.274;8.708;2022-11-22T17:43:11;9.48;;;8.20;;
46339;SDS011;47273;49.274;8.708;2022-11-22T17:45:43;8.50;;;7.70;;
46339;SDS011;47273;49.274;8.708;2022-11-22T17:48:09;8.63;;;7.90;;
46339;SDS011;47273;49.274;8.708;2022-11-22T17:50:36;10.35;;;8.60;;
46339;SDS011;47273;49.274;8.708;2022-11-22T17:53:05;14.18;;;11.43;;
46339;SDS011;47273;49.274;8.708;2022-11-22T17:55:31;11.02;;;9.80;;
46339;SDS011;47273;49.274;8.708;2022-11-22T17:57:56;10.98;;;8.95;;
46339;SDS011;47273;49.274;8.708;2022-11-22T18:00:22;10.15;;;8.25;;
46339;SDS011;47273;49.274;8.708;2022-11-22T18:02:47;10.45;;;8.50;;
46339;SDS011;47273;49.274;8.708;2022-11-22T18:05:13;10.50;;;8.38;;
46339;SDS011;47273;49.274;8.708;2022-11-22T18:07:39;11.23;;;9.00;;
46339;SDS011;47273;49.274;8.708;2022-11-22T18:10:06;9.43;;;8.63;;
46339;SDS011;47273;49.274;8.708;2022-11-22T18:12:33;12.30;;;7.63;;
46339;SDS011;47273;49.274;8.708;2022-11-22T18:15:00;9.55;;;7.93;;
46339;SDS011;47273;49.274;8.708;2022-11-22T18:17:26;11.07;;;7.78;;
46339;SDS011;47273;49.274;8.708;2022-11-22T18:19:54;9.30;;;8.10;;
46339;SDS011;47273;49.274;8.708;2022-11-22T18:22:20;8.00;;;7.30;;
46339;SDS011;47273;49.274;8.708;2022-11-22T18:24:45;8.82;;;7.45;;
46339;SDS011;47273;49.274;8.708;2022-11-22T18:27:11;12.07;;;8.18;;
46339;SDS011;47273;49.274;8.708;2022-11-22T18:29:37;11.70;;;8.40;;
46339;SDS011;47273;49.274;8.708;2022-11-22T18:32:02;12.60;;;8.05;;
46339;SDS011;47273;49.274;8.708;2022-11-22T18:34:28;10.88;;;8.32;;
46339;SDS011;47273;49.274;8.708;2022-11-22T18:36:54;15.10;;;8.25;;
46339;SDS011;47273;49.274;8.708;2022-11-22T18:39:20;10.98;;;8.68;;
46339;SDS011;47273;49.274;8.708;2022-11-22T18:41:46;9.40;;;8.50;;
46339;SDS011;47273;49.274;8.708;2022-11-22T18:44:12;8.75;;;7.85;;
46339;SDS011;47273;49.274;8.708;2022-11-22T18:46:38;9.40;;;8.50;;
46339;SDS011;47273;49.274;8.708;2022-11-22T18:49:04;12.60;;;8.20;;
46339;SDS011;47273;49.274;8.708;2022-11-22T18:51:30;8.68;;;7.80;;
46339;SDS011;47273;49.274;8.708;2022-11-22T18:53:57;14.55;;;9.70;;
46339;SDS011;47273;49.274;8.708;2022-11-22T18:56:24;13.18;;;9.75;;
46339;SDS011;47273;49.274;8.708;2022-11-22T18:58:50;15.98;;;9.98;;
46339;SDS011;47273;49.274;8.708;2022-11-22T19:01:19;9.35;;;8.35;;
46339;SDS011;47273;49.274;8.708;2022-11-22T19:03:46;11.02;;;8.43;;
46339;SDS011;47273;49.274;8.708;2022-11-22T19:06:13;10.98;;;7.57;;
46339;SDS011;47273;49.274;8.708;2022-11-22T19:08:43;9.63;;;8.60;;
46339;SDS011;47273;49.274;8.708;2022-11-22T19:11:09;13.85;;;8.63;;
46339;SDS011;47273;49.274;8.708;2022-11-22T19:13:36;11.80;;;7.60;;
46339;SDS011;47273;49.274;8.708;2022-11-22T19:16:04;16.98;;;8.30;;
46339;SDS011;47273;49.274;8.708;2022-11-22T19:18:35;9.45;;;8.07;;
46339;SDS011;47273;49.274;8.708;2022-11-22T19:21:04;9.40;;;8.05;;
46339;SDS011;47273;49.274;8.708;2022-11-22T19:23:35;10.40;;;7.55;;
46339;SDS011;47273;49.274;8.708;2022-11-22T19:26:02;12.60;;;7.40;;
46339;SDS011;47273;49.274;8.708;2022-11-22T19:28:32;9.23;;;7.85;;
46339;SDS011;47273;49.274;8.708;2022-11-22T19:31:17;12.38;;;8.25;;
46339;SDS011;47273;49.274;8.708;2022-11-22T19:33:44;10.55;;;8.25;;
46339;SDS011;47273;49.274;8.708;2022-11-22T19:36:11;12.77;;;8.73;;
46339;SDS011;47273;49.274;8.708;2022-11-22T19:38:41;9.88;;;7.85;;
46339;SDS011;47273;49.274;8.708;2022-11-22T19:41:08;13.05;;;8.40;;
46339;SDS011;47273;49.274;8.708;2022-11-22T19:43:35;9.30;;;8.30;;
46339;SDS011;47273;49.274;8.708;2022-11-22T19:46:01;15.45;;;8.63;;
46339;SDS011;47273;49.274;8.708;2022-11-22T19:48:27;9.20;;;8.25;;
46339;SDS011;47273;49.274;8.708;2022-11-22T19:50:54;9.60;;;8.48;;
46339;SDS011;47273;49.274;8.708;2022-11-22T19:53:20;10.98;;;8.25;;
46339;SDS011;47273;49.274;8.708;2022-11-22T19:55:45;12.82;;;8.52;;
46339;SDS011;47273;49.274;8.708;2022-11-22T19:58:11;9.52;;;8.52;;
46339;SDS011;47273;49.274;8.708;2022-11-22T20:00:37;11.55;;;8.13;;
46339;SDS011;47273;49.274;8.708;2022-11-22T20:03:02;8.90;;;7.50;;
46339;SDS011;47273;49.274;8.708;2022-11-22T20:05:31;14.48;;;8.25;;
46339;SDS011;47273;49.274;8.708;2022-11-22T20:07:57;10.93;;;8.43;;
46339;SDS011;47273;49.274;8.708;2022-11-22T20:10:23;12.35;;;7.97;;
46339;SDS011;47273;49.274;8.708;2022-11-22T20:12:50;13.98;;;8.48;;
46339;SDS011;47273;49.274;8.708;2022-11-22T20:15:16;9.55;;;8.57;;
46339;SDS011;47273;49.274;8.708;2022-11-22T20:17:42;9.32;;;8.50;;
46339;SDS011;47273;49.274;8.708;2022-11-22T20:20:08;12.77;;;8.77;;
46339;SDS011;47273;49.274;8.708;2022-11-22T20:22:34;15.38;;;9.38;;
46339;SDS011;47273;49.274;8.708;2022-11-22T20:25:00;10.73;;;8.88;;
46339;SDS011;47273;49.274;8.708;2022-11-22T20:27:26;12.07;;;10.10;;
46339;SDS011;47273;49.274;8.708;2022-11-22T20:29:52;11.88;;;9.05;;
46339;SDS011;47273;49.274;8.708;2022-11-22T20:32:18;11.20;;;9.50;;
46339;SDS011;47273;49.274;8.708;2022-11-22T20:34:44;10.75;;;8.90;;
46339;SDS011;47273;49.274;8.708;2022-11-22T20:37:10;10.05;;;8.60;;
46339;SDS011;47273;49.274;8.708;2022-11-22T20:39:35;10.63;;;8.55;;
46339;SDS011;47273;49.274;8.708;2022-11-22T20:42:02;13.85;;;8.80;;
46339;SDS011;47273;49.274;8.708;2022-11-22T20:44:28;12.27;;;8.88;;
46339;SDS011;47273;49.274;8.708;2022-11-22T20:46:54;19.15;;;9.13;;
46339;SDS011;47273;49.274;8.708;2022-11-22T20:49:19;13.35;;;9.65;;
46339;SDS011;47273;49.274;8.708;2022-11-22T20:51:49;12.73;;;9.10;;
46339;SDS011;47273;49.274;8.708;2022-11-22T20:54:14;11.43;;;8.40;;
46339;SDS011;47273;49.274;8.708;2022-11-22T20:56:41;10.07;;;8.85;;
46339;SDS011;47273;49.274;8.708;2022-11-22T20:59:07;10.52;;;9.10;;
46339;SDS011;47273;49.274;8.708;2022-11-22T21:01:33;13.35;;;8.35;;
46339;SDS011;47273;49.274;8.708;2022-11-22T21:03:59;10.10;;;7.75;;
46339;SDS011;47273;49.274;8.708;2022-11-22T21:06:25;11.30;;;7.68;;
46339;SDS011;47273;49.274;8.708;2022-11-22T21:08:51;14.70;;;8.27;;
46339;SDS011;47273;49.274;8.708;2022-11-22T21:11:19;13.43;;;8.80;;
46339;SDS011;47273;49.274;8.708;2022-11-22T21:13:46;10.43;;;8.07;;
46339;SDS011;47273;49.274;8.708;2022-11-22T21:16:17;8.88;;;7.68;;
46339;SDS011;47273;49.274;8.708;2022-11-22T21:19:03;15.50;;;9.55;;
46339;SDS011;47273;49.274;8.708;2022-11-22T21:21:29;18.13;;;8.57;;
46339;SDS011;47273;49.274;8.708;2022-11-22T21:24:00;10.18;;;8.55;;
46339;SDS011;47273;49.274;8.708;2022-11-22T21:26:27;12.68;;;8.95;;
46339;SDS011;47273;49.274;8.708;2022-11-22T21:28:53;14.68;;;9.32;;
